sensor_id;sensor_type;location;lat;lon;timestamp;temperature;humidity
9219;DHT22;4644;48.858;9.184;2023-08-24T00:00:19;20.60;99.90
9219;DHT22;4644;48.858;9.184;2023-08-24T00:02:46;20.70;99.90
9219;DHT22;4644;48.858;9.184;2023-08-24T00:05:13;20.70;99.90
9219;DHT22;4644;48.858;9.184;2023-08-24T00:07:40;20.70;99.90
9219;DHT22;4644;48.858;9.184;2023-08-24T00:10:08;20.70;99.90
9219;DHT22;4644;48.858;9.184;2023-08-24T00:12:35;20.70;99.90
9219;DHT22;4644;48.858;9.184;2023-08-24T00:15:04;20.70;99.90
9219;DHT22;4644;48.858;9.184;2023-08-24T00:17:34;20.60;99.90
9219;DHT22;4644;48.858;9.184;2023-08-24T00:20:01;20.60;99.90
9219;DHT22;4644;48.858;9.184;2023-08-24T00:22:30;20.60;99.90
9219;DHT22;4644;48.858;9.184;2023-08-24T00:24:57;20.50;99.90
9219;DHT22;4644;48.858;9.184;2023-08-24T00:27:24;20.50;99.90
9219;DHT22;4644;48.858;9.184;2023-08-24T00:29:51;20.50;99.90
9219;DHT22;4644;48.858;9.184;2023-08-24T00:32:19;20.60;99.90
9219;DHT22;4644;48.858;9.184;2023-08-24T00:34:46;20.60;99.90
9219;DHT22;4644;48.858;9.184;2023-08-24T00:37:13;20.60;99.90
9219;DHT22;4644;48.858;9.184;2023-08-24T00:39:40;20.50;99.90
9219;DHT22;4644;48.858;9.184;2023-08-24T00:42:07;20.60;99.90
9219;DHT22;4644;48.858;9.184;2023-08-24T00:44:38;20.60;99.90
9219;DHT22;4644;48.858;9.184;2023-08-24T00:47:06;20.60;99.90
9219;DHT22;4644;48.858;9.184;2023-08-24T00:49:35;20.60;99.90
9219;DHT22;4644;48.858;9.184;2023-08-24T00:52:02;20.50;99.90
9219;DHT22;4644;48.858;9.184;2023-08-24T00:54:29;20.50;99.90
9219;DHT22;4644;48.858;9.184;2023-08-24T00:56:56;20.50;99.90
9219;DHT22;4644;48.858;9.184;2023-08-24T00:59:23;20.40;99.90
9219;DHT22;4644;48.858;9.184;2023-08-24T01:01:51;20.40;99.90
9219;DHT22;4644;48.858;9.184;2023-08-24T01:04:18;20.40;99.90
9219;DHT22;4644;48.858;9.184;2023-08-24T01:06:46;20.40;99.90
9219;DHT22;4644;48.858;9.184;2023-08-24T01:09:14;20.40;99.90
9219;DHT22;4644;48.858;9.184;2023-08-24T01:11:49;20.40;99.90
9219;DHT22;4644;48.858;9.184;2023-08-24T01:14:23;20.40;99.90
9219;DHT22;4644;48.858;9.184;2023-08-24T01:16:58;20.40;99.90
9219;DHT22;4644;48.858;9.184;2023-08-24T01:19:41;20.40;99.90
9219;DHT22;4644;48.858;9.184;2023-08-24T01:22:20;20.30;99.90
9219;DHT22;4644;48.858;9.184;2023-08-24T01:24:58;20.30;99.90
9219;DHT22;4644;48.858;9.184;2023-08-24T01:27:29;20.30;99.90
9219;DHT22;4644;48.858;9.184;2023-08-24T01:29:57;20.20;99.90
9219;DHT22;4644;48.858;9.184;2023-08-24T01:32:25;20.20;99.90
9219;DHT22;4644;48.858;9.184;2023-08-24T01:34:52;20.10;99.90
9219;DHT22;4644;48.858;9.184;2023-08-24T01:37:19;20.10;99.90
9219;DHT22;4644;48.858;9.184;2023-08-24T01:39:52;20.20;99.90
9219;DHT22;4644;48.858;9.184;2023-08-24T01:42:22;20.20;99.90
9219;DHT22;4644;48.858;9.184;2023-08-24T01:44:57;20.10;99.90
9219;DHT22;4644;48.858;9.184;2023-08-24T01:47:25;20.10;99.90
9219;DHT22;4644;48.858;9.184;2023-08-24T01:49:54;20.00;99.90
9219;DHT22;4644;48.858;9.184;2023-08-24T01:52:21;20.00;99.90
9219;DHT22;4644;48.858;9.184;2023-08-24T01:54:49;19.90;99.90
9219;DHT22;4644;48.858;9.184;2023-08-24T01:57:16;19.90;99.90
9219;DHT22;4644;48.858;9.184;2023-08-24T01:59:43;19.90;99.90
9219;DHT22;4644;48.858;9.184;2023-08-24T02:02:12;19.80;99.90
9219;DHT22;4644;48.858;9.184;2023-08-24T02:04:39;19.80;99.90
9219;DHT22;4644;48.858;9.184;2023-08-24T02:07:06;19.80;99.90
9219;DHT22;4644;48.858;9.184;2023-08-24T02:09:32;19.80;99.90
9219;DHT22;4644;48.858;9.184;2023-08-24T02:11:59;19.70;99.90
9219;DHT22;4644;48.858;9.184;2023-08-24T02:14:26;19.70;99.90
9219;DHT22;4644;48.858;9.184;2023-08-24T02:16:53;19.70;99.90
9219;DHT22;4644;48.858;9.184;2023-08-24T02:19:22;19.70;99.90
9219;DHT22;4644;48.858;9.184;2023-08-24T02:21:48;19.70;99.90
9219;DHT22;4644;48.858;9.184;2023-08-24T02:24:15;19.70;99.90
9219;DHT22;4644;48.858;9.184;2023-08-24T02:26:42;19.70;99.90
9219;DHT22;4644;48.858;9.184;2023-08-24T02:29:09;19.70;99.90
9219;DHT22;4644;48.858;9.184;2023-08-24T02:31:36;19.70;99.90
9219;DHT22;4644;48.858;9.184;2023-08-24T02:34:03;19.70;99.90
9219;DHT22;4644;48.858;9.184;2023-08-24T02:36:32;19.70;99.90
9219;DHT22;4644;48.858;9.184;2023-08-24T02:38:59;19.70;99.90
9219;DHT22;4644;48.858;9.184;2023-08-24T02:41:26;19.70;99.90
9219;DHT22;4644;48.858;9.184;2023-08-24T02:43:53;19.70;99.90
9219;DHT22;4644;48.858;9.184;2023-08-24T02:46:21;19.80;99.90
9219;DHT22;4644;48.858;9.184;2023-08-24T02:48:48;19.80;99.90
9219;DHT22;4644;48.858;9.184;2023-08-24T02:51:15;19.70;99.90
9219;DHT22;4644;48.858;9.184;2023-08-24T02:53:44;19.70;99.90
9219;DHT22;4644;48.858;9.184;2023-08-24T02:56:11;19.70;99.90
9219;DHT22;4644;48.858;9.184;2023-08-24T02:58:39;19.70;99.90
9219;DHT22;4644;48.858;9.184;2023-08-24T03:01:06;19.70;99.90
9219;DHT22;4644;48.858;9.184;2023-08-24T03:03:33;19.70;99.90
9219;DHT22;4644;48.858;9.184;2023-08-24T03:06:02;19.60;99.90
9219;DHT22;4644;48.858;9.184;2023-08-24T03:08:30;19.60;99.90
9219;DHT22;4644;48.858;9.184;2023-08-24T03:11:00;19.50;99.90
9219;DHT22;4644;48.858;9.184;2023-08-24T03:13:28;19.50;99.90
9219;DHT22;4644;48.858;9.184;2023-08-24T03:15:55;19.50;99.90
9219;DHT22;4644;48.858;9.184;2023-08-24T03:18:22;19.50;99.90
9219;DHT22;4644;48.858;9.184;2023-08-24T03:20:49;19.50;99.90
9219;DHT22;4644;48.858;9.184;2023-08-24T03:23:16;19.50;99.90
9219;DHT22;4644;48.858;9.184;2023-08-24T03:25:43;19.50;99.90
9219;DHT22;4644;48.858;9.184;2023-08-24T03:28:12;19.50;99.90
9219;DHT22;4644;48.858;9.184;2023-08-24T03:30:44;19.60;99.90
9219;DHT22;4644;48.858;9.184;2023-08-24T03:33:12;19.60;99.90
9219;DHT22;4644;48.858;9.184;2023-08-24T03:35:39;19.60;99.90
9219;DHT22;4644;48.858;9.184;2023-08-24T03:38:07;19.50;99.90
9219;DHT22;4644;48.858;9.184;2023-08-24T03:40:34;19.50;99.90
9219;DHT22;4644;48.858;9.184;2023-08-24T03:43:01;19.50;99.90
9219;DHT22;4644;48.858;9.184;2023-08-24T03:45:30;19.50;99.90
9219;DHT22;4644;48.858;9.184;2023-08-24T03:47:56;19.50;99.90
9219;DHT22;4644;48.858;9.184;2023-08-24T03:50:23;19.50;99.90
9219;DHT22;4644;48.858;9.184;2023-08-24T03:52:50;19.50;99.90
9219;DHT22;4644;48.858;9.184;2023-08-24T03:55:20;19.50;99.90
9219;DHT22;4644;48.858;9.184;2023-08-24T03:57:47;19.50;99.90
9219;DHT22;4644;48.858;9.184;2023-08-24T04:00:14;19.50;99.90
9219;DHT22;4644;48.858;9.184;2023-08-24T04:02:44;19.50;99.90
9219;DHT22;4644;48.858;9.184;2023-08-24T04:05:11;19.50;99.90
9219;DHT22;4644;48.858;9.184;2023-08-24T04:07:38;19.60;99.90
9219;DHT22;4644;48.858;9.184;2023-08-24T04:10:07;19.60;99.90
9219;DHT22;4644;48.858;9.184;2023-08-24T04:12:35;19.70;99.90
9219;DHT22;4644;48.858;9.184;2023-08-24T04:15:03;19.70;99.90
9219;DHT22;4644;48.858;9.184;2023-08-24T04:17:30;19.70;99.90
9219;DHT22;4644;48.858;9.184;2023-08-24T04:19:59;19.70;99.90
9219;DHT22;4644;48.858;9.184;2023-08-24T04:22:26;19.60;99.90
9219;DHT22;4644;48.858;9.184;2023-08-24T04:24:52;19.60;99.90
9219;DHT22;4644;48.858;9.184;2023-08-24T04:27:19;19.60;99.90
9219;DHT22;4644;48.858;9.184;2023-08-24T04:29:47;19.50;99.90
9219;DHT22;4644;48.858;9.184;2023-08-24T04:32:14;19.60;99.90
9219;DHT22;4644;48.858;9.184;2023-08-24T04:34:41;19.60;99.90
9219;DHT22;4644;48.858;9.184;2023-08-24T04:37:09;19.60;99.90
9219;DHT22;4644;48.858;9.184;2023-08-24T04:39:36;19.70;99.90
9219;DHT22;4644;48.858;9.184;2023-08-24T04:42:04;19.60;99.90
9219;DHT22;4644;48.858;9.184;2023-08-24T04:44:31;19.60;99.90
9219;DHT22;4644;48.858;9.184;2023-08-24T04:46:58;19.50;99.90
9219;DHT22;4644;48.858;9.184;2023-08-24T04:49:25;19.40;99.90
9219;DHT22;4644;48.858;9.184;2023-08-24T04:51:54;19.40;99.90
9219;DHT22;4644;48.858;9.184;2023-08-24T04:54:22;19.40;99.90
9219;DHT22;4644;48.858;9.184;2023-08-24T04:56:49;19.40;99.90
9219;DHT22;4644;48.858;9.184;2023-08-24T04:59:16;19.30;99.90
9219;DHT22;4644;48.858;9.184;2023-08-24T05:01:44;19.30;99.90
9219;DHT22;4644;48.858;9.184;2023-08-24T05:04:11;19.30;99.90
9219;DHT22;4644;48.858;9.184;2023-08-24T05:06:38;19.30;99.90
9219;DHT22;4644;48.858;9.184;2023-08-24T05:09:05;19.30;99.90
9219;DHT22;4644;48.858;9.184;2023-08-24T05:11:33;19.40;99.90
9219;DHT22;4644;48.858;9.184;2023-08-24T05:14:00;19.40;99.90
9219;DHT22;4644;48.858;9.184;2023-08-24T05:16:27;19.50;99.90
9219;DHT22;4644;48.858;9.184;2023-08-24T05:18:54;19.50;99.90
9219;DHT22;4644;48.858;9.184;2023-08-24T05:21:21;19.50;99.90
9219;DHT22;4644;48.858;9.184;2023-08-24T05:23:48;19.50;99.90
9219;DHT22;4644;48.858;9.184;2023-08-24T05:26:15;19.50;99.90
9219;DHT22;4644;48.858;9.184;2023-08-24T05:28:49;19.60;99.90
9219;DHT22;4644;48.858;9.184;2023-08-24T05:31:16;19.70;99.90
9219;DHT22;4644;48.858;9.184;2023-08-24T05:33:43;19.70;99.90
9219;DHT22;4644;48.858;9.184;2023-08-24T05:36:10;19.70;99.90
9219;DHT22;4644;48.858;9.184;2023-08-24T05:38:37;19.80;99.90
9219;DHT22;4644;48.858;9.184;2023-08-24T05:41:04;19.90;99.90
9219;DHT22;4644;48.858;9.184;2023-08-24T05:43:31;20.00;99.90
9219;DHT22;4644;48.858;9.184;2023-08-24T05:45:59;20.10;99.90
9219;DHT22;4644;48.858;9.184;2023-08-24T05:48:27;20.20;99.90
9219;DHT22;4644;48.858;9.184;2023-08-24T05:50:54;20.20;99.90
9219;DHT22;4644;48.858;9.184;2023-08-24T05:53:21;20.30;99.90
9219;DHT22;4644;48.858;9.184;2023-08-24T05:55:48;20.30;99.90
9219;DHT22;4644;48.858;9.184;2023-08-24T05:58:15;20.30;99.90
9219;DHT22;4644;48.858;9.184;2023-08-24T06:00:42;20.40;99.90
9219;DHT22;4644;48.858;9.184;2023-08-24T06:03:11;20.40;99.90
9219;DHT22;4644;48.858;9.184;2023-08-24T06:05:38;20.60;99.90
9219;DHT22;4644;48.858;9.184;2023-08-24T06:08:05;20.60;99.90
9219;DHT22;4644;48.858;9.184;2023-08-24T06:10:32;20.60;99.90
9219;DHT22;4644;48.858;9.184;2023-08-24T06:12:59;20.60;99.90
9219;DHT22;4644;48.858;9.184;2023-08-24T06:15:28;20.60;99.90
9219;DHT22;4644;48.858;9.184;2023-08-24T06:17:55;20.70;99.90
9219;DHT22;4644;48.858;9.184;2023-08-24T06:20:23;20.70;99.90
9219;DHT22;4644;48.858;9.184;2023-08-24T06:22:50;20.90;99.90
9219;DHT22;4644;48.858;9.184;2023-08-24T06:25:17;21.00;99.90
9219;DHT22;4644;48.858;9.184;2023-08-24T06:27:44;21.20;99.90
9219;DHT22;4644;48.858;9.184;2023-08-24T06:30:11;21.30;99.90
9219;DHT22;4644;48.858;9.184;2023-08-24T06:32:39;21.50;99.90
9219;DHT22;4644;48.858;9.184;2023-08-24T06:35:06;21.50;99.90
9219;DHT22;4644;48.858;9.184;2023-08-24T06:37:34;21.60;99.90
9219;DHT22;4644;48.858;9.184;2023-08-24T06:40:01;21.60;99.90
9219;DHT22;4644;48.858;9.184;2023-08-24T06:42:30;21.60;99.90
9219;DHT22;4644;48.858;9.184;2023-08-24T06:44:57;21.60;99.90
9219;DHT22;4644;48.858;9.184;2023-08-24T06:47:24;21.60;99.90
9219;DHT22;4644;48.858;9.184;2023-08-24T06:49:51;21.60;99.90
9219;DHT22;4644;48.858;9.184;2023-08-24T06:52:18;21.70;99.90
9219;DHT22;4644;48.858;9.184;2023-08-24T06:54:46;21.70;99.90
9219;DHT22;4644;48.858;9.184;2023-08-24T06:57:14;21.60;99.90
9219;DHT22;4644;48.858;9.184;2023-08-24T06:59:41;21.50;99.90
9219;DHT22;4644;48.858;9.184;2023-08-24T07:02:08;21.50;99.90
9219;DHT22;4644;48.858;9.184;2023-08-24T07:04:35;21.50;99.90
9219;DHT22;4644;48.858;9.184;2023-08-24T07:07:04;21.60;99.90
9219;DHT22;4644;48.858;9.184;2023-08-24T07:09:31;21.70;99.90
9219;DHT22;4644;48.858;9.184;2023-08-24T07:12:00;21.80;99.90
9219;DHT22;4644;48.858;9.184;2023-08-24T07:14:28;21.90;99.90
9219;DHT22;4644;48.858;9.184;2023-08-24T07:16:55;22.00;99.90
9219;DHT22;4644;48.858;9.184;2023-08-24T07:19:22;22.20;99.90
9219;DHT22;4644;48.858;9.184;2023-08-24T07:21:49;22.40;99.90
9219;DHT22;4644;48.858;9.184;2023-08-24T07:24:16;22.60;99.90
9219;DHT22;4644;48.858;9.184;2023-08-24T07:26:44;22.70;99.90
9219;DHT22;4644;48.858;9.184;2023-08-24T07:29:13;22.70;99.90
9219;DHT22;4644;48.858;9.184;2023-08-24T07:31:40;22.80;99.90
9219;DHT22;4644;48.858;9.184;2023-08-24T07:34:07;22.80;99.90
9219;DHT22;4644;48.858;9.184;2023-08-24T07:36:34;22.80;99.90
9219;DHT22;4644;48.858;9.184;2023-08-24T07:39:01;22.70;99.90
9219;DHT22;4644;48.858;9.184;2023-08-24T07:41:27;22.80;99.90
9219;DHT22;4644;48.858;9.184;2023-08-24T07:43:54;22.80;99.90
9219;DHT22;4644;48.858;9.184;2023-08-24T07:46:23;22.90;99.90
9219;DHT22;4644;48.858;9.184;2023-08-24T07:48:50;23.00;99.90
9219;DHT22;4644;48.858;9.184;2023-08-24T07:51:17;23.40;99.90
9219;DHT22;4644;48.858;9.184;2023-08-24T07:53:44;23.80;99.90
9219;DHT22;4644;48.858;9.184;2023-08-24T07:56:11;24.20;99.90
9219;DHT22;4644;48.858;9.184;2023-08-24T07:58:38;24.30;99.90
9219;DHT22;4644;48.858;9.184;2023-08-24T08:01:05;24.40;99.90
9219;DHT22;4644;48.858;9.184;2023-08-24T08:03:33;24.50;99.90
9219;DHT22;4644;48.858;9.184;2023-08-24T08:06:01;24.60;99.90
9219;DHT22;4644;48.858;9.184;2023-08-24T08:08:29;24.70;99.90
9219;DHT22;4644;48.858;9.184;2023-08-24T08:10:59;24.90;99.90
9219;DHT22;4644;48.858;9.184;2023-08-24T08:13:26;25.20;99.90
9219;DHT22;4644;48.858;9.184;2023-08-24T08:15:53;25.40;99.90
9219;DHT22;4644;48.858;9.184;2023-08-24T08:18:20;25.80;99.90
9219;DHT22;4644;48.858;9.184;2023-08-24T08:20:51;26.30;99.90
9219;DHT22;4644;48.858;9.184;2023-08-24T08:23:18;26.70;99.90
9219;DHT22;4644;48.858;9.184;2023-08-24T08:25:45;27.00;99.90
9219;DHT22;4644;48.858;9.184;2023-08-24T08:28:12;27.20;99.90
9219;DHT22;4644;48.858;9.184;2023-08-24T08:30:39;27.20;99.90
9219;DHT22;4644;48.858;9.184;2023-08-24T08:33:06;26.90;99.90
9219;DHT22;4644;48.858;9.184;2023-08-24T08:35:32;27.30;99.90
9219;DHT22;4644;48.858;9.184;2023-08-24T08:38:01;27.10;99.90
9219;DHT22;4644;48.858;9.184;2023-08-24T08:40:30;26.80;99.90
9219;DHT22;4644;48.858;9.184;2023-08-24T08:42:57;26.80;99.90
9219;DHT22;4644;48.858;9.184;2023-08-24T08:45:25;27.20;99.90
9219;DHT22;4644;48.858;9.184;2023-08-24T08:47:55;27.60;99.90
9219;DHT22;4644;48.858;9.184;2023-08-24T08:50:22;27.90;99.90
9219;DHT22;4644;48.858;9.184;2023-08-24T08:52:49;28.20;99.90
9219;DHT22;4644;48.858;9.184;2023-08-24T08:55:18;28.20;99.90
9219;DHT22;4644;48.858;9.184;2023-08-24T08:57:47;28.10;99.90
9219;DHT22;4644;48.858;9.184;2023-08-24T09:00:15;28.30;99.90
9219;DHT22;4644;48.858;9.184;2023-08-24T09:02:44;28.70;99.90
9219;DHT22;4644;48.858;9.184;2023-08-24T09:05:12;28.50;99.90
9219;DHT22;4644;48.858;9.184;2023-08-24T09:07:40;28.40;99.90
9219;DHT22;4644;48.858;9.184;2023-08-24T09:10:07;28.60;99.90
9219;DHT22;4644;48.858;9.184;2023-08-24T09:12:36;28.80;99.90
9219;DHT22;4644;48.858;9.184;2023-08-24T09:15:04;29.30;99.90
9219;DHT22;4644;48.858;9.184;2023-08-24T09:17:32;29.70;99.90
9219;DHT22;4644;48.858;9.184;2023-08-24T09:20:00;30.10;99.90
9219;DHT22;4644;48.858;9.184;2023-08-24T09:22:27;30.10;98.40
9219;DHT22;4644;48.858;9.184;2023-08-24T09:24:54;29.80;98.50
9219;DHT22;4644;48.858;9.184;2023-08-24T09:27:22;30.00;99.40
9219;DHT22;4644;48.858;9.184;2023-08-24T09:29:50;30.30;99.00
9219;DHT22;4644;48.858;9.184;2023-08-24T09:32:23;30.50;97.60
9219;DHT22;4644;48.858;9.184;2023-08-24T09:34:50;30.60;96.40
9219;DHT22;4644;48.858;9.184;2023-08-24T09:37:18;30.70;98.40
9219;DHT22;4644;48.858;9.184;2023-08-24T09:39:45;30.70;97.00
9219;DHT22;4644;48.858;9.184;2023-08-24T09:42:13;30.90;97.10
9219;DHT22;4644;48.858;9.184;2023-08-24T09:44:43;31.00;97.80
9219;DHT22;4644;48.858;9.184;2023-08-24T09:47:12;31.10;96.70
9219;DHT22;4644;48.858;9.184;2023-08-24T09:49:39;31.30;96.90
9219;DHT22;4644;48.858;9.184;2023-08-24T09:52:08;31.40;95.30
9219;DHT22;4644;48.858;9.184;2023-08-24T09:54:37;31.40;96.40
9219;DHT22;4644;48.858;9.184;2023-08-24T09:57:06;31.30;93.60
9219;DHT22;4644;48.858;9.184;2023-08-24T09:59:35;30.90;95.10
9219;DHT22;4644;48.858;9.184;2023-08-24T10:02:15;30.70;94.80
9219;DHT22;4644;48.858;9.184;2023-08-24T10:04:42;30.70;94.90
9219;DHT22;4644;48.858;9.184;2023-08-24T10:07:11;30.90;95.30
9219;DHT22;4644;48.858;9.184;2023-08-24T10:09:47;30.90;94.30
9219;DHT22;4644;48.858;9.184;2023-08-24T10:12:21;30.90;94.50
9219;DHT22;4644;48.858;9.184;2023-08-24T10:14:56;30.90;95.30
9219;DHT22;4644;48.858;9.184;2023-08-24T10:17:24;31.00;95.30
9219;DHT22;4644;48.858;9.184;2023-08-24T10:19:52;31.30;96.30
9219;DHT22;4644;48.858;9.184;2023-08-24T10:22:20;31.40;94.50
9219;DHT22;4644;48.858;9.184;2023-08-24T10:24:47;31.70;95.00
9219;DHT22;4644;48.858;9.184;2023-08-24T10:27:14;31.70;94.60
9219;DHT22;4644;48.858;9.184;2023-08-24T10:29:43;31.70;92.60
9219;DHT22;4644;48.858;9.184;2023-08-24T10:32:10;31.70;95.40
9219;DHT22;4644;48.858;9.184;2023-08-24T10:34:39;31.90;93.30
9219;DHT22;4644;48.858;9.184;2023-08-24T10:37:09;31.70;93.10
9219;DHT22;4644;48.858;9.184;2023-08-24T10:39:38;31.50;95.00
9219;DHT22;4644;48.858;9.184;2023-08-24T10:42:11;31.70;93.90
9219;DHT22;4644;48.858;9.184;2023-08-24T10:44:39;31.90;93.90
9219;DHT22;4644;48.858;9.184;2023-08-24T10:47:08;31.80;93.50
9219;DHT22;4644;48.858;9.184;2023-08-24T10:49:39;32.00;94.60
9219;DHT22;4644;48.858;9.184;2023-08-24T10:52:20;31.90;94.40
9219;DHT22;4644;48.858;9.184;2023-08-24T10:54:48;31.90;95.20
9219;DHT22;4644;48.858;9.184;2023-08-24T10:57:20;32.10;95.00
9219;DHT22;4644;48.858;9.184;2023-08-24T11:00:05;32.30;96.10
9219;DHT22;4644;48.858;9.184;2023-08-24T11:02:43;32.30;95.20
9219;DHT22;4644;48.858;9.184;2023-08-24T11:05:22;32.50;93.80
9219;DHT22;4644;48.858;9.184;2023-08-24T11:07:52;32.40;94.60
9219;DHT22;4644;48.858;9.184;2023-08-24T11:10:20;32.50;94.80
9219;DHT22;4644;48.858;9.184;2023-08-24T11:13:05;32.60;94.00
9219;DHT22;4644;48.858;9.184;2023-08-24T11:15:33;32.50;93.10
9219;DHT22;4644;48.858;9.184;2023-08-24T11:18:12;32.60;94.20
9219;DHT22;4644;48.858;9.184;2023-08-24T11:20:42;32.60;93.80
9219;DHT22;4644;48.858;9.184;2023-08-24T11:23:10;32.70;94.40
9219;DHT22;4644;48.858;9.184;2023-08-24T11:25:37;32.80;94.30
9219;DHT22;4644;48.858;9.184;2023-08-24T11:28:04;32.80;92.80
9219;DHT22;4644;48.858;9.184;2023-08-24T11:30:32;32.70;92.60
9219;DHT22;4644;48.858;9.184;2023-08-24T11:32:59;32.50;93.70
9219;DHT22;4644;48.858;9.184;2023-08-24T11:35:27;32.60;94.90
9219;DHT22;4644;48.858;9.184;2023-08-24T11:37:55;32.80;94.70
9219;DHT22;4644;48.858;9.184;2023-08-24T11:40:23;32.80;93.80
9219;DHT22;4644;48.858;9.184;2023-08-24T11:42:53;32.80;94.30
9219;DHT22;4644;48.858;9.184;2023-08-24T11:45:21;33.00;93.50
9219;DHT22;4644;48.858;9.184;2023-08-24T11:47:49;33.00;93.90
9219;DHT22;4644;48.858;9.184;2023-08-24T11:50:16;32.70;92.50
9219;DHT22;4644;48.858;9.184;2023-08-24T11:52:44;32.80;94.60
9219;DHT22;4644;48.858;9.184;2023-08-24T11:55:13;32.70;92.80
9219;DHT22;4644;48.858;9.184;2023-08-24T11:57:41;32.70;94.20
9219;DHT22;4644;48.858;9.184;2023-08-24T12:00:09;32.80;95.50
9219;DHT22;4644;48.858;9.184;2023-08-24T12:02:39;32.80;93.80
9219;DHT22;4644;48.858;9.184;2023-08-24T12:05:07;32.80;94.70
9219;DHT22;4644;48.858;9.184;2023-08-24T12:07:34;32.80;94.10
9219;DHT22;4644;48.858;9.184;2023-08-24T12:10:01;32.80;93.30
9219;DHT22;4644;48.858;9.184;2023-08-24T12:12:29;32.80;93.80
9219;DHT22;4644;48.858;9.184;2023-08-24T12:14:56;32.80;93.80
9219;DHT22;4644;48.858;9.184;2023-08-24T12:17:24;32.80;93.30
9219;DHT22;4644;48.858;9.184;2023-08-24T12:19:58;32.80;93.90
9219;DHT22;4644;48.858;9.184;2023-08-24T12:22:26;32.80;94.40
9219;DHT22;4644;48.858;9.184;2023-08-24T12:24:53;32.80;93.80
9219;DHT22;4644;48.858;9.184;2023-08-24T12:27:22;32.90;93.50
9219;DHT22;4644;48.858;9.184;2023-08-24T12:29:51;32.80;92.40
9219;DHT22;4644;48.858;9.184;2023-08-24T12:32:20;32.90;92.90
9219;DHT22;4644;48.858;9.184;2023-08-24T12:34:49;32.80;93.20
9219;DHT22;4644;48.858;9.184;2023-08-24T12:37:17;32.80;94.70
9219;DHT22;4644;48.858;9.184;2023-08-24T12:39:44;32.90;94.60
9219;DHT22;4644;48.858;9.184;2023-08-24T12:42:11;33.00;93.40
9219;DHT22;4644;48.858;9.184;2023-08-24T12:44:38;33.10;94.60
9219;DHT22;4644;48.858;9.184;2023-08-24T12:47:07;33.10;94.00
9219;DHT22;4644;48.858;9.184;2023-08-24T12:49:34;33.10;93.50
9219;DHT22;4644;48.858;9.184;2023-08-24T12:52:00;33.10;94.20
9219;DHT22;4644;48.858;9.184;2023-08-24T12:54:28;33.10;94.60
9219;DHT22;4644;48.858;9.184;2023-08-24T12:56:55;33.20;93.50
9219;DHT22;4644;48.858;9.184;2023-08-24T12:59:22;33.20;93.30
9219;DHT22;4644;48.858;9.184;2023-08-24T13:01:49;33.40;94.10
9219;DHT22;4644;48.858;9.184;2023-08-24T13:04:17;33.40;93.40
9219;DHT22;4644;48.858;9.184;2023-08-24T13:06:45;33.50;91.60
9219;DHT22;4644;48.858;9.184;2023-08-24T13:09:12;33.50;91.40
9219;DHT22;4644;48.858;9.184;2023-08-24T13:11:39;33.50;92.70
9219;DHT22;4644;48.858;9.184;2023-08-24T13:14:06;33.60;91.30
9219;DHT22;4644;48.858;9.184;2023-08-24T13:16:33;33.70;92.50
9219;DHT22;4644;48.858;9.184;2023-08-24T13:19:00;33.70;90.30
9219;DHT22;4644;48.858;9.184;2023-08-24T13:21:29;33.80;86.90
9219;DHT22;4644;48.858;9.184;2023-08-24T13:23:55;33.80;88.40
9219;DHT22;4644;48.858;9.184;2023-08-24T13:26:23;33.90;89.70
9219;DHT22;4644;48.858;9.184;2023-08-24T13:28:50;33.90;87.60
9219;DHT22;4644;48.858;9.184;2023-08-24T13:31:18;34.00;86.40
9219;DHT22;4644;48.858;9.184;2023-08-24T13:33:45;34.00;87.50
9219;DHT22;4644;48.858;9.184;2023-08-24T13:36:12;33.90;90.40
9219;DHT22;4644;48.858;9.184;2023-08-24T13:38:41;33.90;86.60
9219;DHT22;4644;48.858;9.184;2023-08-24T13:41:08;33.80;87.00
9219;DHT22;4644;48.858;9.184;2023-08-24T13:43:35;33.70;86.80
9219;DHT22;4644;48.858;9.184;2023-08-24T13:46:02;33.70;85.70
9219;DHT22;4644;48.858;9.184;2023-08-24T13:48:28;33.70;86.10
9219;DHT22;4644;48.858;9.184;2023-08-24T13:50:58;33.70;85.50
9219;DHT22;4644;48.858;9.184;2023-08-24T13:53:25;33.80;86.40
9219;DHT22;4644;48.858;9.184;2023-08-24T13:55:54;33.80;87.20
9219;DHT22;4644;48.858;9.184;2023-08-24T13:58:21;33.80;86.00
9219;DHT22;4644;48.858;9.184;2023-08-24T14:00:48;33.90;86.30
9219;DHT22;4644;48.858;9.184;2023-08-24T14:03:21;34.00;83.50
9219;DHT22;4644;48.858;9.184;2023-08-24T14:05:48;34.00;84.80
9219;DHT22;4644;48.858;9.184;2023-08-24T14:08:15;33.90;84.00
9219;DHT22;4644;48.858;9.184;2023-08-24T14:10:42;33.80;83.60
9219;DHT22;4644;48.858;9.184;2023-08-24T14:13:11;33.80;84.10
9219;DHT22;4644;48.858;9.184;2023-08-24T14:15:37;33.70;82.70
9219;DHT22;4644;48.858;9.184;2023-08-24T14:18:04;33.70;85.00
9219;DHT22;4644;48.858;9.184;2023-08-24T14:20:31;33.70;85.90
9219;DHT22;4644;48.858;9.184;2023-08-24T14:22:58;33.60;84.90
9219;DHT22;4644;48.858;9.184;2023-08-24T14:25:27;33.60;89.70
9219;DHT22;4644;48.858;9.184;2023-08-24T14:27:54;33.50;86.20
9219;DHT22;4644;48.858;9.184;2023-08-24T14:30:22;33.40;84.90
9219;DHT22;4644;48.858;9.184;2023-08-24T14:32:49;33.40;81.80
9219;DHT22;4644;48.858;9.184;2023-08-24T14:35:16;33.30;84.00
9219;DHT22;4644;48.858;9.184;2023-08-24T14:37:43;33.20;89.70
9219;DHT22;4644;48.858;9.184;2023-08-24T14:40:10;33.00;89.40
9219;DHT22;4644;48.858;9.184;2023-08-24T14:42:37;32.80;93.50
9219;DHT22;4644;48.858;9.184;2023-08-24T14:45:06;32.70;94.50
9219;DHT22;4644;48.858;9.184;2023-08-24T14:47:34;32.60;96.20
9219;DHT22;4644;48.858;9.184;2023-08-24T14:50:01;32.40;94.70
9219;DHT22;4644;48.858;9.184;2023-08-24T14:52:28;32.20;95.10
9219;DHT22;4644;48.858;9.184;2023-08-24T14:54:55;32.10;95.00
9219;DHT22;4644;48.858;9.184;2023-08-24T14:57:22;31.90;97.00
9219;DHT22;4644;48.858;9.184;2023-08-24T14:59:49;31.70;90.80
9219;DHT22;4644;48.858;9.184;2023-08-24T15:02:16;31.90;92.80
9219;DHT22;4644;48.858;9.184;2023-08-24T15:04:45;30.60;96.90
9219;DHT22;4644;48.858;9.184;2023-08-24T15:07:12;28.90;99.90
9219;DHT22;4644;48.858;9.184;2023-08-24T15:09:39;26.50;99.90
9219;DHT22;4644;48.858;9.184;2023-08-24T15:14:33;23.80;99.90
9219;DHT22;4644;48.858;9.184;2023-08-24T15:17:00;23.20;99.90
9219;DHT22;4644;48.858;9.184;2023-08-24T15:19:27;23.20;99.90
9219;DHT22;4644;48.858;9.184;2023-08-24T15:21:55;22.90;99.90
9219;DHT22;4644;48.858;9.184;2023-08-24T15:24:22;23.10;99.90
9219;DHT22;4644;48.858;9.184;2023-08-24T15:26:49;22.70;99.90
9219;DHT22;4644;48.858;9.184;2023-08-24T15:29:16;22.60;99.90
9219;DHT22;4644;48.858;9.184;2023-08-24T15:31:43;22.50;99.90
9219;DHT22;4644;48.858;9.184;2023-08-24T15:34:10;22.20;99.90
9219;DHT22;4644;48.858;9.184;2023-08-24T15:36:36;21.90;99.90
9219;DHT22;4644;48.858;9.184;2023-08-24T15:39:05;21.70;99.90
9219;DHT22;4644;48.858;9.184;2023-08-24T15:41:31;21.60;99.90
9219;DHT22;4644;48.858;9.184;2023-08-24T15:43:58;21.50;99.90
9219;DHT22;4644;48.858;9.184;2023-08-24T15:46:25;21.60;99.90
9219;DHT22;4644;48.858;9.184;2023-08-24T15:48:52;21.60;99.90
9219;DHT22;4644;48.858;9.184;2023-08-24T15:51:21;21.50;99.90
9219;DHT22;4644;48.858;9.184;2023-08-24T15:53:49;21.60;99.90
9219;DHT22;4644;48.858;9.184;2023-08-24T15:56:16;21.80;99.90
9219;DHT22;4644;48.858;9.184;2023-08-24T15:58:43;21.80;99.90
9219;DHT22;4644;48.858;9.184;2023-08-24T16:01:11;21.50;99.90
9219;DHT22;4644;48.858;9.184;2023-08-24T16:03:38;21.40;99.90
9219;DHT22;4644;48.858;9.184;2023-08-24T16:06:05;21.30;99.90
9219;DHT22;4644;48.858;9.184;2023-08-24T16:08:32;21.40;99.90